createdAt,value
2019-02-24T00:01:23.558Z,16.07
2019-02-24T00:03:54.727Z,14.10
2019-02-24T00:06:25.521Z,15.47
2019-02-24T00:08:56.337Z,14.37
2019-02-24T00:11:26.870Z,16.00
2019-02-24T00:13:57.508Z,15.50
2019-02-24T00:16:27.917Z,15.80
2019-02-24T00:18:58.483Z,15.23
2019-02-24T00:21:29.910Z,15.70
2019-02-24T00:24:00.397Z,15.07
2019-02-24T00:26:30.865Z,14.97
2019-02-24T00:29:01.511Z,13.60
2019-02-24T00:31:31.945Z,15.43
2019-02-24T00:34:02.982Z,15.37
2019-02-24T00:36:33.508Z,14.40
2019-02-24T00:39:04.133Z,14.70
2019-02-24T00:41:35.101Z,14.60
2019-02-24T00:44:08.274Z,13.93
2019-02-24T00:46:39.028Z,13.57
2019-02-24T00:49:09.576Z,13.27
2019-02-24T00:51:40.024Z,13.07
2019-02-24T00:54:10.587Z,13.60
2019-02-24T00:56:41.019Z,13.77
2019-02-24T00:59:11.608Z,14.10
2019-02-24T01:01:43.832Z,13.27
2019-02-24T01:04:15.334Z,14.07
2019-02-24T01:06:45.923Z,12.80
2019-02-24T01:09:16.827Z,13.40
2019-02-24T01:11:47.338Z,14.57
2019-02-24T01:14:18.044Z,13.13
2019-02-24T01:16:48.762Z,13.43
2019-02-24T01:19:19.089Z,12.30
2019-02-24T01:21:49.560Z,13.80
2019-02-24T01:24:20.045Z,13.20
2019-02-24T01:26:50.519Z,13.27
2019-02-24T01:29:21.075Z,14.00
2019-02-24T01:31:51.993Z,13.40
2019-02-24T01:34:22.607Z,12.90
2019-02-24T01:36:53.171Z,12.67
2019-02-24T01:39:23.967Z,12.63
2019-02-24T01:41:54.508Z,12.53
2019-02-24T01:44:25.781Z,13.70
2019-02-24T01:46:56.493Z,13.10
2019-02-24T01:49:27.226Z,12.40
2019-02-24T01:51:58.102Z,13.17
2019-02-24T01:54:28.940Z,13.03
2019-02-24T01:56:59.482Z,14.47
2019-02-24T01:59:30.196Z,13.67
2019-02-24T02:02:00.878Z,13.80
2019-02-24T02:04:31.722Z,13.03
2019-02-24T02:07:02.516Z,13.03
2019-02-24T02:09:33.344Z,12.63
2019-02-24T02:12:03.845Z,12.03
2019-02-24T02:14:34.442Z,13.07
2019-02-24T02:17:05.140Z,12.40
2019-02-24T02:19:35.737Z,11.07
2019-02-24T02:22:06.447Z,12.03
2019-02-24T02:24:37.214Z,11.90
2019-02-24T02:27:08.264Z,12.20
2019-02-24T02:29:39.092Z,11.03
2019-02-24T02:32:09.715Z,12.10
2019-02-24T02:34:40.423Z,11.83
2019-02-24T02:37:11.086Z,11.00
2019-02-24T02:39:41.629Z,10.97
2019-02-24T02:42:12.453Z,11.57
2019-02-24T02:44:43.188Z,11.90
2019-02-24T02:47:13.810Z,11.93
2019-02-24T02:49:44.344Z,12.40
2019-02-24T02:52:14.769Z,11.93
2019-02-24T02:54:45.450Z,11.63
2019-02-24T02:57:15.882Z,11.47
2019-02-24T02:59:46.620Z,11.23
2019-02-24T03:02:24.020Z,13.07
2019-02-24T03:04:49.363Z,11.73
2019-02-24T03:07:27.192Z,11.50
2019-02-24T03:09:57.893Z,12.43
2019-02-24T03:12:28.796Z,11.97
2019-02-24T03:14:59.234Z,12.20
2019-02-24T03:17:29.777Z,11.60
2019-02-24T03:20:00.305Z,12.70
2019-02-24T03:22:31.372Z,11.53
2019-02-24T03:25:02.354Z,12.00
2019-02-24T03:27:32.992Z,12.43
2019-02-24T03:30:03.649Z,12.67
2019-02-24T03:32:34.373Z,12.70
2019-02-24T03:35:05.106Z,12.43
2019-02-24T03:37:35.748Z,11.60
2019-02-24T03:40:06.556Z,13.63
2019-02-24T03:42:37.397Z,12.43
2019-02-24T03:45:08.638Z,11.40
2019-02-24T03:47:39.068Z,12.60
2019-02-24T03:50:09.606Z,11.60
2019-02-24T03:52:40.090Z,11.07
2019-02-24T03:55:10.701Z,11.47
2019-02-24T03:57:43.131Z,10.60
2019-02-24T04:00:13.770Z,10.07
2019-02-24T04:02:44.336Z,10.87
2019-02-24T04:05:16.195Z,10.43
2019-02-24T04:07:47.012Z,10.43
2019-02-24T04:10:17.776Z,10.83
2019-02-24T04:12:48.900Z,11.27
2019-02-24T04:15:20.786Z,11.37
2019-02-24T04:17:51.348Z,11.00
2019-02-24T04:20:21.876Z,11.27
2019-02-24T04:22:52.296Z,12.10
2019-02-24T04:25:23.034Z,11.33
2019-02-24T04:27:53.472Z,11.37
2019-02-24T04:30:24.125Z,12.07
2019-02-24T04:32:54.581Z,11.20
2019-02-24T04:35:25.264Z,11.53
2019-02-24T04:37:55.994Z,11.73
2019-02-24T04:40:26.632Z,11.37
2019-02-24T04:42:57.044Z,10.70
2019-02-24T04:45:27.719Z,11.10
2019-02-24T04:47:58.324Z,11.43
2019-02-24T04:50:28.780Z,11.30
2019-02-24T04:52:59.705Z,11.53
2019-02-24T04:55:31.938Z,11.60
2019-02-24T04:58:02.478Z,10.97
2019-02-24T05:00:33.937Z,12.27
2019-02-24T05:03:04.467Z,12.43
2019-02-24T05:05:35.490Z,11.83
2019-02-24T05:08:06.647Z,10.93
2019-02-24T05:10:37.376Z,11.03
2019-02-24T05:13:07.973Z,11.23
2019-02-24T05:15:40.986Z,10.43
2019-02-24T05:18:11.721Z,10.63
2019-02-24T05:20:42.329Z,10.63
2019-02-24T05:23:13.315Z,9.90
2019-02-24T05:25:44.040Z,10.20
2019-02-24T05:28:14.698Z,9.90
2019-02-24T05:30:45.301Z,9.73
2019-02-24T05:33:16.894Z,10.70
2019-02-24T05:35:47.401Z,10.90
2019-02-24T05:38:17.891Z,10.97
2019-02-24T05:40:48.279Z,10.57
2019-02-24T05:43:18.710Z,9.77
2019-02-24T05:45:50.499Z,10.07
2019-02-24T05:48:20.970Z,10.43
2019-02-24T05:50:51.315Z,9.13
2019-02-24T05:53:21.606Z,9.53
2019-02-24T05:55:51.936Z,10.20
2019-02-24T05:58:22.256Z,10.00
2019-02-24T06:00:52.659Z,10.30
2019-02-24T06:03:23.275Z,10.70
2019-02-24T06:05:53.620Z,10.33
2019-02-24T06:08:26.054Z,10.20
2019-02-24T06:10:56.479Z,9.60
2019-02-24T06:13:26.969Z,10.53
2019-02-24T06:15:57.709Z,10.23
2019-02-24T06:18:28.427Z,10.53
2019-02-24T06:20:59.040Z,10.23
2019-02-24T06:23:30.294Z,9.53
2019-02-24T06:26:03.043Z,10.97
2019-02-24T06:28:36.114Z,9.87
2019-02-24T06:31:06.809Z,10.97
2019-02-24T06:33:37.959Z,10.63
2019-02-24T06:36:08.863Z,9.90
2019-02-24T06:38:40.027Z,10.13
2019-02-24T06:41:11.072Z,9.93
2019-02-24T06:43:41.956Z,11.40
2019-02-24T06:46:14.403Z,10.10
2019-02-24T06:48:45.470Z,10.17
2019-02-24T06:51:17.308Z,10.23
2019-02-24T06:53:48.283Z,10.30
2019-02-24T06:56:19.643Z,9.33
2019-02-24T06:58:51.695Z,10.67
2019-02-24T07:01:22.564Z,9.43
2019-02-24T07:03:54.600Z,10.00
2019-02-24T07:06:26.175Z,11.30
2019-02-24T07:08:57.759Z,10.43
2019-02-24T07:11:29.243Z,10.60
2019-02-24T07:14:00.473Z,9.93
2019-02-24T07:16:31.913Z,10.17
2019-02-24T07:19:03.129Z,9.97
2019-02-24T07:21:34.878Z,11.30
2019-02-24T07:24:06.341Z,12.20
2019-02-24T07:26:38.071Z,11.80
2019-02-24T07:29:09.359Z,10.97
2019-02-24T07:31:40.849Z,9.97
2019-02-24T07:34:12.103Z,11.10
2019-02-24T07:36:43.663Z,11.90
2019-02-24T07:39:14.833Z,11.30
2019-02-24T07:41:46.182Z,11.73
2019-02-24T07:44:18.273Z,11.10
2019-02-24T07:46:49.377Z,9.77
2019-02-24T07:49:20.785Z,9.83
2019-02-24T07:51:52.101Z,9.60
2019-02-24T07:54:23.083Z,9.43
2019-02-24T07:56:54.182Z,8.77
2019-02-24T07:59:25.375Z,9.43
2019-02-24T08:01:56.629Z,7.97
2019-02-24T08:04:27.941Z,8.93
2019-02-24T08:06:59.533Z,8.13
2019-02-24T08:09:31.739Z,8.63
2019-02-24T08:12:03.056Z,7.30
2019-02-24T08:14:34.115Z,9.40
2019-02-24T08:17:05.152Z,10.10
2019-02-24T08:19:36.679Z,8.43
2019-02-24T08:22:10.807Z,8.13
2019-02-24T08:24:41.726Z,9.00
2019-02-24T08:27:15.247Z,8.43
2019-02-24T08:29:46.191Z,8.83
2019-02-24T08:32:18.064Z,8.00
2019-02-24T08:34:49.301Z,8.77
2019-02-24T08:37:24.976Z,8.00
2019-02-24T08:39:56.229Z,7.70
2019-02-24T08:42:27.681Z,8.53
2019-02-24T08:44:59.662Z,8.67
2019-02-24T08:47:30.854Z,8.77
2019-02-24T08:50:02.527Z,8.20
2019-02-24T08:52:33.819Z,8.47
2019-02-24T08:55:05.567Z,8.10
2019-02-24T08:57:37.130Z,9.37
2019-02-24T09:00:09.588Z,9.57
2019-02-24T09:02:40.794Z,9.03
2019-02-24T09:05:12.812Z,8.07
2019-02-24T09:07:43.774Z,8.93
2019-02-24T09:10:15.056Z,8.57
2019-02-24T09:12:48.450Z,7.67
2019-02-24T09:15:19.554Z,8.23
2019-02-24T09:17:51.630Z,8.23
2019-02-24T09:20:23.015Z,9.17
2019-02-24T09:22:54.293Z,8.83
2019-02-24T09:25:25.802Z,8.30
2019-02-24T09:27:56.832Z,8.47
2019-02-24T09:30:27.805Z,8.43
2019-02-24T09:32:59.439Z,8.87
2019-02-24T09:35:31.048Z,8.73
2019-02-24T09:38:02.277Z,8.67
2019-02-24T09:40:33.544Z,9.17
2019-02-24T09:43:04.435Z,8.33
2019-02-24T09:45:37.716Z,8.33
2019-02-24T09:48:11.342Z,8.63
2019-02-24T09:50:42.520Z,8.73
2019-02-24T09:53:13.927Z,9.00
2019-02-24T09:55:45.143Z,8.10
2019-02-24T09:58:16.488Z,8.67
2019-02-24T10:00:47.532Z,8.83
2019-02-24T10:03:18.614Z,7.97
2019-02-24T10:05:49.758Z,8.47
2019-02-24T10:08:21.229Z,8.77
2019-02-24T10:10:52.370Z,8.67
2019-02-24T10:13:24.166Z,8.50
2019-02-24T10:15:55.448Z,8.60
2019-02-24T10:18:26.672Z,9.07
2019-02-24T10:20:58.035Z,9.57
2019-02-24T10:23:35.036Z,9.00
2019-02-24T10:26:06.169Z,8.27
2019-02-24T10:28:37.120Z,8.47
2019-02-24T10:31:08.269Z,8.20
2019-02-24T10:33:39.475Z,8.57
2019-02-24T10:36:10.592Z,7.90
2019-02-24T10:38:43.058Z,8.20
2019-02-24T10:41:14.275Z,8.27
2019-02-24T10:43:45.526Z,7.73
2019-02-24T10:46:17.066Z,8.23
2019-02-24T10:48:50.236Z,8.30
2019-02-24T10:51:21.172Z,7.70
2019-02-24T10:53:52.617Z,7.90
2019-02-24T10:56:23.720Z,7.43
2019-02-24T10:58:54.462Z,7.90
2019-02-24T11:01:29.702Z,8.43
2019-02-24T11:03:58.417Z,7.47
2019-02-24T11:06:30.330Z,6.80
2019-02-24T11:09:01.324Z,7.57
2019-02-24T11:11:32.928Z,7.20
2019-02-24T11:14:04.077Z,6.97
2019-02-24T11:16:38.584Z,7.83
2019-02-24T11:19:09.673Z,6.63
2019-02-24T11:21:40.768Z,8.23
2019-02-24T11:24:12.206Z,7.60
2019-02-24T11:26:43.462Z,7.73
2019-02-24T11:29:15.107Z,7.07
2019-02-24T11:31:46.342Z,7.63
2019-02-24T11:34:17.688Z,6.93
2019-02-24T11:36:48.921Z,7.40
2019-02-24T11:39:20.356Z,7.20
2019-02-24T11:41:51.584Z,7.13
2019-02-24T11:44:22.466Z,6.90
2019-02-24T11:46:53.225Z,7.23
2019-02-24T11:49:24.196Z,7.00
2019-02-24T11:52:03.612Z,7.03
2019-02-24T11:54:29.392Z,6.67
2019-02-24T11:57:00.976Z,7.27
2019-02-24T11:59:32.403Z,7.90
2019-02-24T12:02:04.828Z,6.93
2019-02-24T12:04:36.328Z,7.13
2019-02-24T12:07:07.459Z,7.30
2019-02-24T12:09:38.677Z,7.20
2019-02-24T12:12:09.972Z,7.27
2019-02-24T12:14:41.348Z,7.80
2019-02-24T12:17:13.375Z,7.10
2019-02-24T12:19:44.779Z,7.17
2019-02-24T12:22:16.172Z,7.53
2019-02-24T12:24:47.145Z,6.73
2019-02-24T12:27:18.362Z,7.33
2019-02-24T12:29:49.726Z,7.70
2019-02-24T12:32:20.936Z,6.20
2019-02-24T12:34:52.288Z,6.60
2019-02-24T12:37:23.404Z,7.03
2019-02-24T12:39:54.632Z,7.27
2019-02-24T12:42:28.718Z,7.53
2019-02-24T12:45:00.278Z,7.23
2019-02-24T12:47:31.371Z,7.07
2019-02-24T12:50:03.553Z,7.80
2019-02-24T12:52:34.733Z,6.87
2019-02-24T12:55:06.039Z,7.07
2019-02-24T12:57:38.251Z,7.33
2019-02-24T13:00:14.010Z,6.90
2019-02-24T13:02:45.352Z,6.60
2019-02-24T13:05:16.767Z,7.67
2019-02-24T13:07:47.991Z,6.97
2019-02-24T13:10:19.161Z,7.07
2019-02-24T13:12:50.353Z,7.67
2019-02-24T13:15:21.549Z,7.07
2019-02-24T13:17:53.229Z,7.30
2019-02-24T13:20:24.283Z,7.70
2019-02-24T13:22:55.359Z,7.90
2019-02-24T13:25:29.374Z,7.83
2019-02-24T13:28:00.179Z,7.37
2019-02-24T13:30:30.739Z,7.27
2019-02-24T13:33:01.740Z,6.93
2019-02-24T13:35:34.757Z,6.90
2019-02-24T13:38:05.798Z,7.53
2019-02-24T13:40:40.068Z,7.23
2019-02-24T13:43:14.433Z,7.60
2019-02-24T13:45:45.631Z,7.50
2019-02-24T13:48:18.031Z,7.23
2019-02-24T13:50:49.194Z,7.17
2019-02-24T13:53:20.495Z,7.67
2019-02-24T13:55:53.993Z,7.97
2019-02-24T13:58:27.802Z,7.57
2019-02-24T14:00:59.189Z,7.47
2019-02-24T14:03:30.097Z,7.50
2019-02-24T14:06:01.092Z,7.20
2019-02-24T14:08:32.417Z,7.20
2019-02-24T14:11:03.387Z,7.37
2019-02-24T14:13:34.296Z,7.43
2019-02-24T14:16:05.790Z,7.50
2019-02-24T14:18:37.359Z,7.57
2019-02-24T14:21:08.252Z,8.47
2019-02-24T14:23:41.681Z,7.63
2019-02-24T14:26:13.232Z,8.83
2019-02-24T14:28:46.140Z,8.40
2019-02-24T14:31:17.899Z,8.07
2019-02-24T14:33:50.479Z,8.60
2019-02-24T14:36:26.321Z,8.30
2019-02-24T14:38:58.045Z,8.00
2019-02-24T14:41:29.271Z,7.57
2019-02-24T14:44:00.742Z,7.77
2019-02-24T14:46:31.751Z,7.87
2019-02-24T14:49:02.800Z,8.03
2019-02-24T14:51:35.885Z,8.10
2019-02-24T14:54:07.403Z,7.50
2019-02-24T14:56:38.565Z,7.93
2019-02-24T14:59:09.838Z,7.77
2019-02-24T15:01:40.804Z,7.90
2019-02-24T15:04:12.087Z,8.33
2019-02-24T15:06:43.080Z,8.40
2019-02-24T15:09:14.022Z,7.63
2019-02-24T15:11:44.976Z,7.07
2019-02-24T15:14:15.973Z,7.43
2019-02-24T15:16:46.860Z,7.47
2019-02-24T15:19:17.602Z,7.80
2019-02-24T15:21:48.659Z,7.37
2019-02-24T15:24:19.388Z,8.00
2019-02-24T15:26:50.370Z,7.57
2019-02-24T15:29:21.500Z,7.30
2019-02-24T15:31:52.078Z,6.57
2019-02-24T15:34:26.215Z,6.70
2019-02-24T15:37:01.088Z,6.50
2019-02-24T15:39:31.768Z,6.67
2019-02-24T15:42:02.471Z,6.97
2019-02-24T15:44:33.317Z,6.53
2019-02-24T15:47:04.280Z,6.97
2019-02-24T15:49:35.110Z,7.30
2019-02-24T15:52:09.893Z,6.73
2019-02-24T15:54:41.389Z,6.47
2019-02-24T15:57:12.729Z,7.07
2019-02-24T15:59:44.275Z,6.90
2019-02-24T16:02:18.019Z,6.87
2019-02-24T16:04:50.581Z,6.77
2019-02-24T16:07:21.665Z,6.93
2019-02-24T16:09:52.862Z,6.57
2019-02-24T16:12:24.749Z,7.00
2019-02-24T16:14:56.454Z,7.10
2019-02-24T16:17:28.197Z,7.07
2019-02-24T16:20:02.518Z,7.00
2019-02-24T16:22:33.726Z,7.03
2019-02-24T16:25:05.275Z,7.00
2019-02-24T16:27:37.602Z,7.20
2019-02-24T16:30:09.555Z,7.53
2019-02-24T16:32:43.704Z,7.30
2019-02-24T16:35:13.669Z,7.00
2019-02-24T16:37:44.546Z,8.57
2019-02-24T16:40:17.494Z,7.03
2019-02-24T16:42:48.850Z,7.60
2019-02-24T16:45:20.583Z,6.53
2019-02-24T16:47:56.084Z,7.03
2019-02-24T16:50:27.487Z,6.93
2019-02-24T16:52:59.988Z,6.77
2019-02-24T16:55:30.841Z,7.57
2019-02-24T16:58:03.040Z,8.20
2019-02-24T17:00:33.444Z,7.43
2019-02-24T17:03:05.463Z,8.87
2019-02-24T17:05:37.040Z,8.87
2019-02-24T17:08:07.537Z,10.40
2019-02-24T17:10:40.188Z,9.00
2019-02-24T17:13:12.928Z,9.13
2019-02-24T17:15:44.571Z,9.60
2019-02-24T17:18:16.323Z,8.77
2019-02-24T17:20:49.678Z,8.70
2019-02-24T17:23:20.294Z,8.33
2019-02-24T17:25:52.996Z,8.17
2019-02-24T17:28:23.193Z,7.67
2019-02-24T17:30:53.590Z,7.50
2019-02-24T17:33:29.963Z,7.00
2019-02-24T17:35:56.102Z,7.77
2019-02-24T17:38:26.438Z,7.67
2019-02-24T17:40:57.315Z,7.00
2019-02-24T17:43:29.500Z,7.00
2019-02-24T17:45:59.983Z,7.37
2019-02-24T17:48:36.698Z,7.37
2019-02-24T17:51:07.236Z,8.03
2019-02-24T17:53:37.614Z,8.53
2019-02-24T17:56:08.162Z,8.00
2019-02-24T17:58:38.518Z,7.33
2019-02-24T18:01:09.694Z,7.77
2019-02-24T18:03:40.921Z,7.70
2019-02-24T18:06:11.504Z,8.57
2019-02-24T18:08:42.125Z,8.90
2019-02-24T18:11:13.296Z,8.77
2019-02-24T18:13:44.224Z,13.23
2019-02-24T18:16:14.764Z,10.70
2019-02-24T18:18:46.433Z,9.83
2019-02-24T18:21:17.159Z,9.30
2019-02-24T18:23:47.660Z,9.37
2019-02-24T18:26:18.080Z,8.87
2019-02-24T18:28:52.772Z,9.00
2019-02-24T18:35:04.140Z,9.03
2019-02-24T18:37:34.825Z,12.77
2019-02-24T18:40:05.998Z,12.73
2019-02-24T18:42:39.583Z,13.23
2019-02-24T18:45:15.891Z,11.33
2019-02-24T18:47:49.953Z,11.37
2019-02-24T18:50:59.441Z,9.53
2019-02-24T18:53:33.432Z,10.07
2019-02-24T18:56:16.299Z,11.13
2019-02-24T18:58:47.030Z,10.17
2019-02-24T19:01:17.653Z,10.47
2019-02-24T19:03:57.175Z,11.43
2019-02-24T19:06:20.468Z,11.17
2019-02-24T19:08:51.040Z,10.90
2019-02-24T19:11:21.500Z,9.83
2019-02-24T19:13:54.243Z,9.63
2019-02-24T19:16:26.471Z,10.60
2019-02-24T19:18:56.925Z,9.53
2019-02-24T19:21:27.405Z,10.53
2019-02-24T19:24:00.937Z,9.60
2019-02-24T19:26:31.296Z,9.43
2019-02-24T19:29:02.049Z,9.13
2019-02-24T19:31:32.843Z,9.57
2019-02-24T19:34:06.639Z,9.93
2019-02-24T19:36:36.395Z,8.57
2019-02-24T19:39:09.433Z,9.30
2019-02-24T19:41:39.899Z,9.33
2019-02-24T19:44:12.859Z,9.50
2019-02-24T19:46:43.632Z,9.20
2019-02-24T19:49:14.336Z,9.17
2019-02-24T19:51:47.908Z,8.87
2019-02-24T19:54:24.543Z,9.27
2019-02-24T19:56:58.408Z,8.90
2019-02-24T19:59:30.100Z,8.87
2019-02-24T20:02:01.021Z,9.47
2019-02-24T20:04:35.316Z,10.93
2019-02-24T20:07:06.045Z,9.50
2019-02-24T20:09:36.463Z,9.27
2019-02-24T20:12:08.404Z,8.87
2019-02-24T20:14:39.189Z,9.00
2019-02-24T20:17:10.819Z,9.10
2019-02-24T20:19:41.589Z,9.10
2019-02-24T20:22:16.466Z,8.77
2019-02-24T20:24:48.148Z,9.33
2019-02-24T20:27:18.772Z,9.03
2019-02-24T20:29:49.387Z,9.20
2019-02-24T20:32:20.039Z,9.43
2019-02-24T20:34:50.977Z,9.83
2019-02-24T20:37:21.935Z,9.73
2019-02-24T20:39:52.398Z,9.87
2019-02-24T20:42:24.101Z,9.20
2019-02-24T20:44:54.780Z,9.70
2019-02-24T20:47:25.344Z,9.07
2019-02-24T20:49:56.016Z,8.67
2019-02-24T20:52:26.632Z,9.33
2019-02-24T20:54:57.221Z,8.73
2019-02-24T20:57:28.030Z,8.80
2019-02-24T20:59:58.489Z,9.77
2019-02-24T21:02:29.399Z,10.37
2019-02-24T21:05:00.292Z,10.33
2019-02-24T21:07:32.284Z,10.00
2019-02-24T21:10:02.835Z,9.57
2019-02-24T21:12:33.431Z,10.20
2019-02-24T21:15:05.581Z,10.03
2019-02-24T21:17:36.613Z,9.83
2019-02-24T21:20:09.852Z,10.73
2019-02-24T21:22:40.388Z,10.43
2019-02-24T21:25:11.085Z,9.73
2019-02-24T21:27:41.765Z,10.70
2019-02-24T21:30:13.883Z,10.23
2019-02-24T21:32:44.523Z,11.37
2019-02-24T21:35:17.143Z,13.63
2019-02-24T21:37:47.710Z,13.93
2019-02-24T21:40:18.571Z,13.80
2019-02-24T21:42:49.008Z,15.27
2019-02-24T21:45:20.303Z,15.03
2019-02-24T21:47:51.202Z,14.07
2019-02-24T21:50:22.071Z,12.63
2019-02-24T21:52:52.724Z,13.13
2019-02-24T21:55:23.227Z,13.33
2019-02-24T21:57:54.008Z,12.90
2019-02-24T22:00:24.757Z,12.93
2019-02-24T22:02:55.653Z,12.13
2019-02-24T22:05:26.197Z,11.87
2019-02-24T22:07:56.726Z,11.77
2019-02-24T22:10:27.351Z,12.97
2019-02-24T22:13:02.139Z,12.63
2019-02-24T22:15:32.700Z,13.37
2019-02-24T22:18:03.354Z,13.30
2019-02-24T22:20:34.953Z,13.80
2019-02-24T22:23:05.681Z,13.23
2019-02-24T22:25:36.258Z,12.80
2019-02-24T22:28:07.113Z,12.47
2019-02-24T22:30:37.857Z,12.13
2019-02-24T22:33:08.589Z,11.77
2019-02-24T22:35:39.309Z,12.03
2019-02-24T22:38:10.173Z,12.27
2019-02-24T22:40:43.015Z,12.23
2019-02-24T22:43:13.529Z,12.87
2019-02-24T22:45:43.963Z,12.53
2019-02-24T22:48:14.629Z,12.90
2019-02-24T22:50:47.616Z,11.93
2019-02-24T22:53:17.615Z,11.90
2019-02-24T22:55:48.465Z,11.90
2019-02-24T22:58:20.722Z,11.97
2019-02-24T23:01:16.668Z,11.60
2019-02-24T23:03:48.459Z,12.50
2019-02-24T23:06:19.915Z,12.57
2019-02-24T23:08:50.445Z,12.70
2019-02-24T23:11:20.948Z,12.23
2019-02-24T23:13:53.671Z,12.10
2019-02-24T23:16:25.295Z,12.20
2019-02-24T23:18:55.942Z,12.60
2019-02-24T23:21:26.608Z,13.50
2019-02-24T23:23:57.293Z,12.33
2019-02-24T23:26:30.673Z,12.40
2019-02-24T23:29:00.263Z,12.40
2019-02-24T23:31:30.763Z,11.57
2019-02-24T23:34:01.493Z,12.93
2019-02-24T23:36:31.908Z,12.07
2019-02-24T23:39:03.501Z,11.97
2019-02-24T23:41:34.140Z,10.50
2019-02-24T23:44:04.837Z,10.30
2019-02-24T23:46:35.423Z,9.60
2019-02-24T23:49:06.020Z,9.90
2019-02-24T23:51:36.521Z,9.93
2019-02-24T23:54:09.071Z,9.33
2019-02-24T23:56:39.526Z,9.80
2019-02-24T23:59:10.353Z,9.63
